sensor_id;sensor_type;location;lat;lon;timestamp;P1;durP1;ratioP1;P2;durP2;ratioP2
59273;SDS011;45044;41.572;24.730;2023-03-05T00:01:19;20.63;;;12.93;;
59273;SDS011;45044;41.572;24.730;2023-03-05T00:03:49;26.27;;;15.10;;
59273;SDS011;45044;41.572;24.730;2023-03-05T00:06:20;23.90;;;15.57;;
59273;SDS011;45044;41.572;24.730;2023-03-05T00:08:49;25.20;;;15.50;;
59273;SDS011;45044;41.572;24.730;2023-03-05T00:11:19;17.53;;;11.40;;
59273;SDS011;45044;41.572;24.730;2023-03-05T00:13:46;17.93;;;10.50;;
59273;SDS011;45044;41.572;24.730;2023-03-05T00:16:14;19.43;;;11.23;;
59273;SDS011;45044;41.572;24.730;2023-03-05T00:18:41;20.27;;;12.70;;
59273;SDS011;45044;41.572;24.730;2023-03-05T00:21:16;32.13;;;19.77;;
59273;SDS011;45044;41.572;24.730;2023-03-05T00:23:45;21.27;;;13.60;;
59273;SDS011;45044;41.572;24.730;2023-03-05T00:26:12;18.07;;;11.77;;
59273;SDS011;45044;41.572;24.730;2023-03-05T00:28:38;15.23;;;10.17;;
59273;SDS011;45044;41.572;24.730;2023-03-05T00:31:05;16.93;;;9.20;;
59273;SDS011;45044;41.572;24.730;2023-03-05T00:33:32;13.00;;;7.50;;
59273;SDS011;45044;41.572;24.730;2023-03-05T00:35:59;14.37;;;8.73;;
59273;SDS011;45044;41.572;24.730;2023-03-05T00:38:31;16.23;;;9.90;;
59273;SDS011;45044;41.572;24.730;2023-03-05T00:40:58;15.23;;;9.57;;
59273;SDS011;45044;41.572;24.730;2023-03-05T00:43:25;14.30;;;7.97;;
59273;SDS011;45044;41.572;24.730;2023-03-05T00:45:52;15.07;;;9.37;;
59273;SDS011;45044;41.572;24.730;2023-03-05T00:48:19;18.27;;;12.80;;
59273;SDS011;45044;41.572;24.730;2023-03-05T00:50:48;31.80;;;17.97;;
59273;SDS011;45044;41.572;24.730;2023-03-05T00:53:18;16.53;;;12.00;;
59273;SDS011;45044;41.572;24.730;2023-03-05T00:55:45;22.07;;;10.90;;
59273;SDS011;45044;41.572;24.730;2023-03-05T00:58:12;60.63;;;20.87;;
59273;SDS011;45044;41.572;24.730;2023-03-05T01:00:39;19.20;;;9.87;;
59273;SDS011;45044;41.572;24.730;2023-03-05T01:03:07;28.20;;;12.27;;
59273;SDS011;45044;41.572;24.730;2023-03-05T01:05:34;15.83;;;8.83;;
59273;SDS011;45044;41.572;24.730;2023-03-05T01:08:01;22.23;;;11.10;;
59273;SDS011;45044;41.572;24.730;2023-03-05T01:10:28;24.47;;;12.63;;
59273;SDS011;45044;41.572;24.730;2023-03-05T01:12:55;27.20;;;12.70;;
59273;SDS011;45044;41.572;24.730;2023-03-05T01:15:23;28.77;;;14.87;;
59273;SDS011;45044;41.572;24.730;2023-03-05T01:17:50;32.60;;;15.47;;
59273;SDS011;45044;41.572;24.730;2023-03-05T01:20:18;138.30;;;47.13;;
59273;SDS011;45044;41.572;24.730;2023-03-05T01:22:47;40.47;;;17.73;;
59273;SDS011;45044;41.572;24.730;2023-03-05T01:25:14;48.50;;;20.67;;
59273;SDS011;45044;41.572;24.730;2023-03-05T01:27:42;65.00;;;26.07;;
59273;SDS011;45044;41.572;24.730;2023-03-05T01:30:11;63.20;;;26.23;;
59273;SDS011;45044;41.572;24.730;2023-03-05T01:32:39;35.60;;;17.00;;
59273;SDS011;45044;41.572;24.730;2023-03-05T01:35:06;23.13;;;13.07;;
59273;SDS011;45044;41.572;24.730;2023-03-05T01:37:34;28.23;;;12.40;;
59273;SDS011;45044;41.572;24.730;2023-03-05T01:40:00;32.67;;;16.63;;
59273;SDS011;45044;41.572;24.730;2023-03-05T01:42:27;29.03;;;13.67;;
59273;SDS011;45044;41.572;24.730;2023-03-05T01:44:58;23.87;;;13.17;;
59273;SDS011;45044;41.572;24.730;2023-03-05T01:47:27;21.97;;;13.97;;
59273;SDS011;45044;41.572;24.730;2023-03-05T01:49:54;23.17;;;12.53;;
59273;SDS011;45044;41.572;24.730;2023-03-05T01:52:22;20.87;;;11.20;;
59273;SDS011;45044;41.572;24.730;2023-03-05T01:54:56;21.83;;;11.57;;
59273;SDS011;45044;41.572;24.730;2023-03-05T01:58:27;20.42;;;10.18;;
59273;SDS011;45044;41.572;24.730;2023-03-05T02:00:28;31.93;;;13.60;;
59273;SDS011;45044;41.572;24.730;2023-03-05T02:03:00;45.43;;;22.60;;
59273;SDS011;45044;41.572;24.730;2023-03-05T02:05:31;33.47;;;15.40;;
59273;SDS011;45044;41.572;24.730;2023-03-05T02:08:02;21.90;;;11.23;;
59273;SDS011;45044;41.572;24.730;2023-03-05T02:10:33;23.13;;;12.30;;
59273;SDS011;45044;41.572;24.730;2023-03-05T02:13:04;24.17;;;13.27;;
59273;SDS011;45044;41.572;24.730;2023-03-05T02:15:33;21.70;;;10.97;;
59273;SDS011;45044;41.572;24.730;2023-03-05T02:17:59;17.57;;;7.50;;
59273;SDS011;45044;41.572;24.730;2023-03-05T02:20:28;17.60;;;8.20;;
59273;SDS011;45044;41.572;24.730;2023-03-05T02:22:56;16.17;;;9.00;;
59273;SDS011;45044;41.572;24.730;2023-03-05T02:25:27;14.90;;;9.27;;
59273;SDS011;45044;41.572;24.730;2023-03-05T02:30:26;25.67;;;12.57;;
59273;SDS011;45044;41.572;24.730;2023-03-05T02:32:53;53.83;;;20.27;;
59273;SDS011;45044;41.572;24.730;2023-03-05T02:35:20;26.37;;;10.70;;
59273;SDS011;45044;41.572;24.730;2023-03-05T02:37:47;30.33;;;13.63;;
59273;SDS011;45044;41.572;24.730;2023-03-05T02:40:14;47.83;;;18.80;;
59273;SDS011;45044;41.572;24.730;2023-03-05T02:42:42;22.57;;;12.47;;
59273;SDS011;45044;41.572;24.730;2023-03-05T02:45:10;17.77;;;8.97;;
59273;SDS011;45044;41.572;24.730;2023-03-05T02:47:37;16.97;;;9.47;;
59273;SDS011;45044;41.572;24.730;2023-03-05T02:50:04;14.03;;;7.87;;
59273;SDS011;45044;41.572;24.730;2023-03-05T02:52:32;19.73;;;11.77;;
59273;SDS011;45044;41.572;24.730;2023-03-05T02:54:58;15.40;;;8.67;;
59273;SDS011;45044;41.572;24.730;2023-03-05T02:57:25;19.40;;;9.57;;
59273;SDS011;45044;41.572;24.730;2023-03-05T02:59:52;18.90;;;9.27;;
59273;SDS011;45044;41.572;24.730;2023-03-05T03:02:19;21.50;;;10.10;;
59273;SDS011;45044;41.572;24.730;2023-03-05T03:04:45;22.47;;;10.67;;
59273;SDS011;45044;41.572;24.730;2023-03-05T03:07:13;20.83;;;10.30;;
59273;SDS011;45044;41.572;24.730;2023-03-05T03:09:40;21.13;;;11.23;;
59273;SDS011;45044;41.572;24.730;2023-03-05T03:12:17;19.17;;;10.27;;
59273;SDS011;45044;41.572;24.730;2023-03-05T03:14:44;21.87;;;12.50;;
59273;SDS011;45044;41.572;24.730;2023-03-05T03:17:12;13.83;;;8.30;;
59273;SDS011;45044;41.572;24.730;2023-03-05T03:19:40;16.93;;;8.50;;
59273;SDS011;45044;41.572;24.730;2023-03-05T03:22:10;13.27;;;8.43;;
59273;SDS011;45044;41.572;24.730;2023-03-05T03:24:38;17.80;;;10.20;;
59273;SDS011;45044;41.572;24.730;2023-03-05T03:27:06;17.13;;;10.13;;
59273;SDS011;45044;41.572;24.730;2023-03-05T03:29:33;15.30;;;9.07;;
59273;SDS011;45044;41.572;24.730;2023-03-05T03:32:00;20.60;;;12.33;;
59273;SDS011;45044;41.572;24.730;2023-03-05T03:34:27;16.93;;;10.30;;
59273;SDS011;45044;41.572;24.730;2023-03-05T03:36:54;17.73;;;11.40;;
59273;SDS011;45044;41.572;24.730;2023-03-05T03:39:21;18.50;;;11.37;;
59273;SDS011;45044;41.572;24.730;2023-03-05T03:41:48;19.50;;;11.30;;
59273;SDS011;45044;41.572;24.730;2023-03-05T03:44:17;17.23;;;10.80;;
59273;SDS011;45044;41.572;24.730;2023-03-05T03:46:46;18.97;;;11.70;;
59273;SDS011;45044;41.572;24.730;2023-03-05T03:49:18;24.37;;;15.90;;
59273;SDS011;45044;41.572;24.730;2023-03-05T03:51:50;29.57;;;20.27;;
59273;SDS011;45044;41.572;24.730;2023-03-05T03:54:20;23.23;;;14.33;;
59273;SDS011;45044;41.572;24.730;2023-03-05T03:56:48;20.43;;;13.27;;
59273;SDS011;45044;41.572;24.730;2023-03-05T03:59:15;21.17;;;13.93;;
59273;SDS011;45044;41.572;24.730;2023-03-05T04:01:42;21.83;;;13.70;;
59273;SDS011;45044;41.572;24.730;2023-03-05T04:04:09;27.57;;;18.60;;
59273;SDS011;45044;41.572;24.730;2023-03-05T04:06:39;26.13;;;15.87;;
59273;SDS011;45044;41.572;24.730;2023-03-05T04:09:05;46.13;;;22.77;;
59273;SDS011;45044;41.572;24.730;2023-03-05T04:11:34;23.27;;;13.80;;
59273;SDS011;45044;41.572;24.730;2023-03-05T04:14:01;20.83;;;11.83;;
59273;SDS011;45044;41.572;24.730;2023-03-05T04:16:29;23.57;;;12.43;;
59273;SDS011;45044;41.572;24.730;2023-03-05T04:18:56;17.80;;;11.50;;
59273;SDS011;45044;41.572;24.730;2023-03-05T04:21:23;24.27;;;14.27;;
59273;SDS011;45044;41.572;24.730;2023-03-05T04:23:49;21.43;;;12.53;;
59273;SDS011;45044;41.572;24.730;2023-03-05T04:26:16;20.13;;;12.63;;
59273;SDS011;45044;41.572;24.730;2023-03-05T04:28:43;22.60;;;13.83;;
59273;SDS011;45044;41.572;24.730;2023-03-05T04:31:09;13.33;;;8.93;;
59273;SDS011;45044;41.572;24.730;2023-03-05T04:33:36;13.23;;;8.43;;
59273;SDS011;45044;41.572;24.730;2023-03-05T04:36:03;13.47;;;7.13;;
59273;SDS011;45044;41.572;24.730;2023-03-05T04:38:30;13.07;;;8.07;;
59273;SDS011;45044;41.572;24.730;2023-03-05T04:40:57;13.43;;;8.33;;
59273;SDS011;45044;41.572;24.730;2023-03-05T04:43:23;13.57;;;8.03;;
59273;SDS011;45044;41.572;24.730;2023-03-05T04:45:50;19.87;;;10.37;;
59273;SDS011;45044;41.572;24.730;2023-03-05T04:48:18;19.57;;;11.37;;
59273;SDS011;45044;41.572;24.730;2023-03-05T04:50:45;17.23;;;9.63;;
59273;SDS011;45044;41.572;24.730;2023-03-05T04:53:12;16.13;;;10.57;;
59273;SDS011;45044;41.572;24.730;2023-03-05T04:55:38;17.27;;;10.13;;
59273;SDS011;45044;41.572;24.730;2023-03-05T04:58:05;15.70;;;10.63;;
59273;SDS011;45044;41.572;24.730;2023-03-05T05:00:32;16.53;;;10.50;;
59273;SDS011;45044;41.572;24.730;2023-03-05T05:02:58;22.13;;;12.53;;
59273;SDS011;45044;41.572;24.730;2023-03-05T05:05:26;19.57;;;12.03;;
59273;SDS011;45044;41.572;24.730;2023-03-05T05:07:54;16.87;;;10.53;;
59273;SDS011;45044;41.572;24.730;2023-03-05T05:10:23;19.30;;;11.67;;
59273;SDS011;45044;41.572;24.730;2023-03-05T05:12:51;17.07;;;12.03;;
59273;SDS011;45044;41.572;24.730;2023-03-05T05:15:18;17.73;;;11.73;;
59273;SDS011;45044;41.572;24.730;2023-03-05T05:17:46;20.27;;;13.43;;
59273;SDS011;45044;41.572;24.730;2023-03-05T05:20:13;20.13;;;12.13;;
59273;SDS011;45044;41.572;24.730;2023-03-05T05:22:41;16.93;;;9.87;;
59273;SDS011;45044;41.572;24.730;2023-03-05T05:25:08;17.87;;;10.10;;
59273;SDS011;45044;41.572;24.730;2023-03-05T05:27:36;19.97;;;10.90;;
59273;SDS011;45044;41.572;24.730;2023-03-05T05:30:05;20.97;;;10.17;;
59273;SDS011;45044;41.572;24.730;2023-03-05T05:32:33;20.17;;;10.33;;
59273;SDS011;45044;41.572;24.730;2023-03-05T05:35:00;24.80;;;13.33;;
59273;SDS011;45044;41.572;24.730;2023-03-05T05:37:28;32.93;;;22.07;;
59273;SDS011;45044;41.572;24.730;2023-03-05T05:39:55;41.43;;;27.00;;
59273;SDS011;45044;41.572;24.730;2023-03-05T05:42:23;35.03;;;24.87;;
59273;SDS011;45044;41.572;24.730;2023-03-05T05:44:51;46.90;;;32.53;;
59273;SDS011;45044;41.572;24.730;2023-03-05T05:47:20;41.30;;;28.90;;
59273;SDS011;45044;41.572;24.730;2023-03-05T05:49:47;43.57;;;32.23;;
59273;SDS011;45044;41.572;24.730;2023-03-05T05:52:14;50.00;;;36.40;;
59273;SDS011;45044;41.572;24.730;2023-03-05T05:54:42;53.23;;;38.33;;
59273;SDS011;45044;41.572;24.730;2023-03-05T05:57:08;47.03;;;31.93;;
59273;SDS011;45044;41.572;24.730;2023-03-05T05:59:35;55.73;;;40.83;;
59273;SDS011;45044;41.572;24.730;2023-03-05T06:02:03;49.57;;;34.87;;
59273;SDS011;45044;41.572;24.730;2023-03-05T06:04:33;38.13;;;26.47;;
59273;SDS011;45044;41.572;24.730;2023-03-05T06:07:00;47.83;;;36.67;;
59273;SDS011;45044;41.572;24.730;2023-03-05T06:09:28;61.27;;;44.50;;
59273;SDS011;45044;41.572;24.730;2023-03-05T06:11:55;64.77;;;45.43;;
59273;SDS011;45044;41.572;24.730;2023-03-05T06:14:22;60.60;;;43.27;;
59273;SDS011;45044;41.572;24.730;2023-03-05T06:16:48;63.70;;;46.07;;
59273;SDS011;45044;41.572;24.730;2023-03-05T06:19:15;64.70;;;46.30;;
59273;SDS011;45044;41.572;24.730;2023-03-05T06:21:42;66.07;;;48.53;;
59273;SDS011;45044;41.572;24.730;2023-03-05T06:24:09;65.28;;;46.15;;
59273;SDS011;45044;41.572;24.730;2023-03-05T06:26:36;57.00;;;41.53;;
59273;SDS011;45044;41.572;24.730;2023-03-05T06:29:08;53.47;;;40.42;;
59273;SDS011;45044;41.572;24.730;2023-03-05T06:31:35;56.40;;;43.55;;
59273;SDS011;45044;41.572;24.730;2023-03-05T06:34:02;57.00;;;44.42;;
59273;SDS011;45044;41.572;24.730;2023-03-05T06:36:29;98.60;;;66.20;;
59273;SDS011;45044;41.572;24.730;2023-03-05T06:38:56;69.05;;;53.85;;
59273;SDS011;45044;41.572;24.730;2023-03-05T06:41:25;69.63;;;53.40;;
59273;SDS011;45044;41.572;24.730;2023-03-05T06:43:54;65.35;;;52.75;;
59273;SDS011;45044;41.572;24.730;2023-03-05T06:46:26;60.80;;;48.78;;
59273;SDS011;45044;41.572;24.730;2023-03-05T06:48:58;44.33;;;33.63;;
59273;SDS011;45044;41.572;24.730;2023-03-05T06:51:33;46.35;;;34.95;;
59273;SDS011;45044;41.572;24.730;2023-03-05T06:54:03;50.95;;;38.33;;
59273;SDS011;45044;41.572;24.730;2023-03-05T06:56:33;53.17;;;38.83;;
59273;SDS011;45044;41.572;24.730;2023-03-05T06:59:02;50.35;;;36.50;;
59273;SDS011;45044;41.572;24.730;2023-03-05T07:01:29;36.80;;;29.08;;
59273;SDS011;45044;41.572;24.730;2023-03-05T07:03:56;38.13;;;29.13;;
59273;SDS011;45044;41.572;24.730;2023-03-05T07:06:28;48.60;;;35.10;;
59273;SDS011;45044;41.572;24.730;2023-03-05T07:08:58;43.33;;;31.13;;
59273;SDS011;45044;41.572;24.730;2023-03-05T07:11:28;55.20;;;35.60;;
59273;SDS011;45044;41.572;24.730;2023-03-05T07:13:55;53.75;;;38.50;;
59273;SDS011;45044;41.572;24.730;2023-03-05T07:16:23;56.72;;;40.40;;
59273;SDS011;45044;41.572;24.730;2023-03-05T07:18:52;56.72;;;40.17;;
59273;SDS011;45044;41.572;24.730;2023-03-05T07:21:21;72.90;;;46.92;;
59273;SDS011;45044;41.572;24.730;2023-03-05T07:23:51;58.75;;;38.70;;
59273;SDS011;45044;41.572;24.730;2023-03-05T07:26:19;49.35;;;34.65;;
59273;SDS011;45044;41.572;24.730;2023-03-05T07:28:46;48.03;;;33.28;;
59273;SDS011;45044;41.572;24.730;2023-03-05T07:31:14;28.10;;;19.92;;
59273;SDS011;45044;41.572;24.730;2023-03-05T07:33:45;20.65;;;14.68;;
59273;SDS011;45044;41.572;24.730;2023-03-05T07:36:14;42.80;;;29.85;;
59273;SDS011;45044;41.572;24.730;2023-03-05T07:38:42;43.47;;;32.45;;
59273;SDS011;45044;41.572;24.730;2023-03-05T07:41:09;32.88;;;26.30;;
59273;SDS011;45044;41.572;24.730;2023-03-05T07:43:39;22.80;;;16.75;;
59273;SDS011;45044;41.572;24.730;2023-03-05T07:46:06;19.10;;;13.38;;
59273;SDS011;45044;41.572;24.730;2023-03-05T07:48:35;26.10;;;19.73;;
59273;SDS011;45044;41.572;24.730;2023-03-05T07:51:03;17.52;;;13.32;;
59273;SDS011;45044;41.572;24.730;2023-03-05T07:53:32;24.38;;;16.83;;
59273;SDS011;45044;41.572;24.730;2023-03-05T07:55:59;19.90;;;14.55;;
59273;SDS011;45044;41.572;24.730;2023-03-05T07:58:26;18.55;;;12.60;;
59273;SDS011;45044;41.572;24.730;2023-03-05T08:00:52;14.88;;;10.13;;
59273;SDS011;45044;41.572;24.730;2023-03-05T08:03:19;13.25;;;9.27;;
59273;SDS011;45044;41.572;24.730;2023-03-05T08:05:46;11.40;;;8.18;;
59273;SDS011;45044;41.572;24.730;2023-03-05T08:08:12;9.10;;;5.63;;
59273;SDS011;45044;41.572;24.730;2023-03-05T08:10:39;11.50;;;7.40;;
59273;SDS011;45044;41.572;24.730;2023-03-05T08:13:06;10.90;;;7.55;;
59273;SDS011;45044;41.572;24.730;2023-03-05T08:15:33;18.40;;;15.60;;
59273;SDS011;45044;41.572;24.730;2023-03-05T08:18:00;25.50;;;18.08;;
59273;SDS011;45044;41.572;24.730;2023-03-05T08:20:27;33.80;;;19.27;;
59273;SDS011;45044;41.572;24.730;2023-03-05T08:22:54;31.80;;;20.52;;
59273;SDS011;45044;41.572;24.730;2023-03-05T08:25:21;18.73;;;8.98;;
59273;SDS011;45044;41.572;24.730;2023-03-05T08:27:48;5.10;;;2.00;;
59273;SDS011;45044;41.572;24.730;2023-03-05T08:30:19;9.20;;;2.95;;
59273;SDS011;45044;41.572;24.730;2023-03-05T08:32:48;9.98;;;4.65;;
59273;SDS011;45044;41.572;24.730;2023-03-05T08:35:15;10.00;;;5.63;;
59273;SDS011;45044;41.572;24.730;2023-03-05T08:37:42;22.48;;;15.57;;
59273;SDS011;45044;41.572;24.730;2023-03-05T08:40:08;17.25;;;10.27;;
59273;SDS011;45044;41.572;24.730;2023-03-05T08:42:36;11.93;;;6.80;;
59273;SDS011;45044;41.572;24.730;2023-03-05T08:45:03;11.98;;;8.52;;
59273;SDS011;45044;41.572;24.730;2023-03-05T08:47:30;13.73;;;8.90;;
59273;SDS011;45044;41.572;24.730;2023-03-05T08:49:57;15.10;;;9.50;;
59273;SDS011;45044;41.572;24.730;2023-03-05T08:52:24;11.57;;;8.18;;
59273;SDS011;45044;41.572;24.730;2023-03-05T08:54:52;12.55;;;8.15;;
59273;SDS011;45044;41.572;24.730;2023-03-05T08:57:19;11.82;;;7.47;;
59273;SDS011;45044;41.572;24.730;2023-03-05T08:59:46;12.05;;;6.80;;
59273;SDS011;45044;41.572;24.730;2023-03-05T09:02:14;8.85;;;5.57;;
59273;SDS011;45044;41.572;24.730;2023-03-05T09:04:41;13.50;;;7.53;;
59273;SDS011;45044;41.572;24.730;2023-03-05T09:07:07;13.38;;;8.50;;
59273;SDS011;45044;41.572;24.730;2023-03-05T09:09:35;12.10;;;6.72;;
59273;SDS011;45044;41.572;24.730;2023-03-05T09:12:02;10.60;;;5.88;;
59273;SDS011;45044;41.572;24.730;2023-03-05T09:14:29;10.05;;;6.85;;
59273;SDS011;45044;41.572;24.730;2023-03-05T09:16:56;6.28;;;3.60;;
59273;SDS011;45044;41.572;24.730;2023-03-05T09:19:23;11.20;;;6.40;;
59273;SDS011;45044;41.572;24.730;2023-03-05T09:21:50;11.65;;;6.15;;
59273;SDS011;45044;41.572;24.730;2023-03-05T09:24:17;25.23;;;16.65;;
59273;SDS011;45044;41.572;24.730;2023-03-05T09:26:44;5.53;;;3.72;;
59273;SDS011;45044;41.572;24.730;2023-03-05T09:29:11;12.40;;;8.57;;
59273;SDS011;45044;41.572;24.730;2023-03-05T09:31:37;12.02;;;7.57;;
59273;SDS011;45044;41.572;24.730;2023-03-05T09:34:05;26.88;;;16.25;;
59273;SDS011;45044;41.572;24.730;2023-03-05T09:36:33;8.23;;;5.60;;
59273;SDS011;45044;41.572;24.730;2023-03-05T09:39:00;8.98;;;4.93;;
59273;SDS011;45044;41.572;24.730;2023-03-05T09:44:21;5.43;;;3.33;;
59273;SDS011;45044;41.572;24.730;2023-03-05T09:47:03;8.77;;;5.25;;
59273;SDS011;45044;41.572;24.730;2023-03-05T09:49:54;10.98;;;6.05;;
59273;SDS011;45044;41.572;24.730;2023-03-05T09:52:44;11.90;;;7.15;;
59273;SDS011;45044;41.572;24.730;2023-03-05T09:55:26;12.90;;;7.70;;
59273;SDS011;45044;41.572;24.730;2023-03-05T09:58:03;13.50;;;8.23;;
59273;SDS011;45044;41.572;24.730;2023-03-05T10:00:46;14.07;;;8.15;;
59273;SDS011;45044;41.572;24.730;2023-03-05T10:11:25;24.73;;;15.45;;
59273;SDS011;45044;41.572;24.730;2023-03-05T10:14:09;37.63;;;21.85;;
59273;SDS011;45044;41.572;24.730;2023-03-05T10:40:45;15.32;;;8.73;;
59273;SDS011;45044;41.572;24.730;2023-03-05T10:46:11;7.38;;;3.78;;
59273;SDS011;45044;41.572;24.730;2023-03-05T10:53:57;10.93;;;6.55;;
59273;SDS011;45044;41.572;24.730;2023-03-05T10:56:27;7.97;;;3.95;;
59273;SDS011;45044;41.572;24.730;2023-03-05T10:58:57;7.85;;;3.60;;
59273;SDS011;45044;41.572;24.730;2023-03-05T11:01:25;8.90;;;5.20;;
59273;SDS011;45044;41.572;24.730;2023-03-05T11:06:30;12.75;;;7.45;;
59273;SDS011;45044;41.572;24.730;2023-03-05T11:14:28;17.48;;;12.30;;
59273;SDS011;45044;41.572;24.730;2023-03-05T11:16:59;11.65;;;6.88;;
59273;SDS011;45044;41.572;24.730;2023-03-05T11:19:30;9.02;;;5.10;;
59273;SDS011;45044;41.572;24.730;2023-03-05T11:24:36;8.52;;;5.00;;
59273;SDS011;45044;41.572;24.730;2023-03-05T11:27:20;12.52;;;7.03;;
59273;SDS011;45044;41.572;24.730;2023-03-05T11:32:18;27.35;;;16.38;;
59273;SDS011;45044;41.572;24.730;2023-03-05T11:34:48;19.23;;;12.73;;
59273;SDS011;45044;41.572;24.730;2023-03-05T11:37:18;21.15;;;13.75;;
59273;SDS011;45044;41.572;24.730;2023-03-05T11:42:48;18.73;;;13.25;;
59273;SDS011;45044;41.572;24.730;2023-03-05T11:45:20;5.95;;;3.03;;
59273;SDS011;45044;41.572;24.730;2023-03-05T11:47:50;9.40;;;5.80;;
59273;SDS011;45044;41.572;24.730;2023-03-05T11:50:23;6.53;;;3.33;;
59273;SDS011;45044;41.572;24.730;2023-03-05T11:52:51;10.82;;;6.57;;
59273;SDS011;45044;41.572;24.730;2023-03-05T11:58:03;19.92;;;13.77;;
59273;SDS011;45044;41.572;24.730;2023-03-05T12:00:37;11.38;;;6.07;;
59273;SDS011;45044;41.572;24.730;2023-03-05T12:03:13;12.68;;;7.40;;
59273;SDS011;45044;41.572;24.730;2023-03-05T12:05:50;24.63;;;17.63;;
59273;SDS011;45044;41.572;24.730;2023-03-05T12:08:24;14.35;;;10.77;;
59273;SDS011;45044;41.572;24.730;2023-03-05T12:10:58;32.00;;;20.00;;
59273;SDS011;45044;41.572;24.730;2023-03-05T12:13:44;17.10;;;11.88;;
59273;SDS011;45044;41.572;24.730;2023-03-05T12:16:36;12.90;;;7.97;;
59273;SDS011;45044;41.572;24.730;2023-03-05T12:19:15;42.92;;;20.60;;
59273;SDS011;45044;41.572;24.730;2023-03-05T12:21:54;11.43;;;6.22;;
59273;SDS011;45044;41.572;24.730;2023-03-05T12:29:26;21.92;;;12.65;;
59273;SDS011;45044;41.572;24.730;2023-03-05T12:31:53;28.63;;;18.60;;
59273;SDS011;45044;41.572;24.730;2023-03-05T12:55:32;9.68;;;5.60;;
59273;SDS011;45044;41.572;24.730;2023-03-05T12:58:03;35.33;;;13.57;;
59273;SDS011;45044;41.572;24.730;2023-03-05T13:00:39;13.27;;;7.47;;
59273;SDS011;45044;41.572;24.730;2023-03-05T13:03:18;22.08;;;11.00;;
59273;SDS011;45044;41.572;24.730;2023-03-05T13:05:50;22.02;;;11.93;;
59273;SDS011;45044;41.572;24.730;2023-03-05T13:10:58;14.68;;;9.27;;
59273;SDS011;45044;41.572;24.730;2023-03-05T13:13:37;18.48;;;14.75;;
59273;SDS011;45044;41.572;24.730;2023-03-05T13:21:28;25.27;;;13.38;;
59273;SDS011;45044;41.572;24.730;2023-03-05T13:23:57;27.42;;;15.63;;
59273;SDS011;45044;41.572;24.730;2023-03-05T13:29:16;11.00;;;5.85;;
59273;SDS011;45044;41.572;24.730;2023-03-05T13:31:45;10.38;;;5.53;;
59273;SDS011;45044;41.572;24.730;2023-03-05T13:34:25;10.55;;;7.40;;
59273;SDS011;45044;41.572;24.730;2023-03-05T13:37:15;9.07;;;4.90;;
59273;SDS011;45044;41.572;24.730;2023-03-05T13:42:29;10.15;;;6.22;;
59273;SDS011;45044;41.572;24.730;2023-03-05T13:44:59;10.65;;;5.55;;
59273;SDS011;45044;41.572;24.730;2023-03-05T13:50:27;14.07;;;8.65;;
59273;SDS011;45044;41.572;24.730;2023-03-05T13:55:47;33.10;;;19.83;;
59273;SDS011;45044;41.572;24.730;2023-03-05T14:01:29;23.55;;;17.08;;
59273;SDS011;45044;41.572;24.730;2023-03-05T14:04:04;33.55;;;19.52;;
59273;SDS011;45044;41.572;24.730;2023-03-05T14:06:36;27.23;;;17.58;;
59273;SDS011;45044;41.572;24.730;2023-03-05T14:09:28;28.30;;;16.10;;
59273;SDS011;45044;41.572;24.730;2023-03-05T14:14:25;32.58;;;20.70;;
59273;SDS011;45044;41.572;24.730;2023-03-05T14:16:53;23.42;;;16.40;;
59273;SDS011;45044;41.572;24.730;2023-03-05T14:19:29;16.60;;;7.72;;
59273;SDS011;45044;41.572;24.730;2023-03-05T14:21:57;30.73;;;13.80;;
59273;SDS011;45044;41.572;24.730;2023-03-05T14:24:25;13.18;;;7.82;;
59273;SDS011;45044;41.572;24.730;2023-03-05T14:26:54;18.00;;;10.30;;
59273;SDS011;45044;41.572;24.730;2023-03-05T14:29:23;22.42;;;15.98;;
59273;SDS011;45044;41.572;24.730;2023-03-05T14:31:55;30.73;;;22.90;;
59273;SDS011;45044;41.572;24.730;2023-03-05T14:34:30;34.10;;;22.02;;
59273;SDS011;45044;41.572;24.730;2023-03-05T14:37:03;31.63;;;22.90;;
59273;SDS011;45044;41.572;24.730;2023-03-05T14:39:43;37.72;;;22.42;;
59273;SDS011;45044;41.572;24.730;2023-03-05T14:42:26;32.10;;;23.40;;
59273;SDS011;45044;41.572;24.730;2023-03-05T14:45:08;34.55;;;25.85;;
59273;SDS011;45044;41.572;24.730;2023-03-05T14:47:38;42.20;;;30.83;;
59273;SDS011;45044;41.572;24.730;2023-03-05T14:50:05;39.03;;;28.92;;
59273;SDS011;45044;41.572;24.730;2023-03-05T14:52:33;35.95;;;28.50;;
59273;SDS011;45044;41.572;24.730;2023-03-05T14:55:01;30.77;;;24.92;;
59273;SDS011;45044;41.572;24.730;2023-03-05T14:57:28;34.30;;;26.05;;
59273;SDS011;45044;41.572;24.730;2023-03-05T14:59:57;38.78;;;29.38;;
59273;SDS011;45044;41.572;24.730;2023-03-05T15:02:25;42.92;;;33.92;;
59273;SDS011;45044;41.572;24.730;2023-03-05T15:04:52;43.55;;;33.08;;
59273;SDS011;45044;41.572;24.730;2023-03-05T15:07:21;52.38;;;37.17;;
59273;SDS011;45044;41.572;24.730;2023-03-05T15:09:48;50.15;;;36.83;;
59273;SDS011;45044;41.572;24.730;2023-03-05T15:12:15;63.72;;;43.53;;
59273;SDS011;45044;41.572;24.730;2023-03-05T15:14:43;78.43;;;48.03;;
59273;SDS011;45044;41.572;24.730;2023-03-05T15:17:25;64.10;;;45.90;;
59273;SDS011;45044;41.572;24.730;2023-03-05T15:19:59;47.28;;;32.85;;
59273;SDS011;45044;41.572;24.730;2023-03-05T15:22:27;45.20;;;34.53;;
59273;SDS011;45044;41.572;24.730;2023-03-05T15:24:54;42.10;;;31.13;;
59273;SDS011;45044;41.572;24.730;2023-03-05T15:27:21;42.28;;;33.03;;
59273;SDS011;45044;41.572;24.730;2023-03-05T15:29:47;37.42;;;28.85;;
59273;SDS011;45044;41.572;24.730;2023-03-05T15:32:14;38.10;;;26.98;;
59273;SDS011;45044;41.572;24.730;2023-03-05T15:34:41;35.92;;;26.08;;
59273;SDS011;45044;41.572;24.730;2023-03-05T15:37:08;38.07;;;28.37;;
59273;SDS011;45044;41.572;24.730;2023-03-05T15:39:35;43.65;;;31.45;;
59273;SDS011;45044;41.572;24.730;2023-03-05T15:42:02;34.05;;;25.42;;
59273;SDS011;45044;41.572;24.730;2023-03-05T15:44:31;39.03;;;28.95;;
59273;SDS011;45044;41.572;24.730;2023-03-05T15:46:58;37.25;;;27.33;;
59273;SDS011;45044;41.572;24.730;2023-03-05T15:49:24;33.13;;;23.92;;
59273;SDS011;45044;41.572;24.730;2023-03-05T15:51:51;30.98;;;23.48;;
59273;SDS011;45044;41.572;24.730;2023-03-05T15:54:20;25.77;;;17.90;;
59273;SDS011;45044;41.572;24.730;2023-03-05T15:56:47;37.50;;;25.77;;
59273;SDS011;45044;41.572;24.730;2023-03-05T15:59:14;33.50;;;21.10;;
59273;SDS011;45044;41.572;24.730;2023-03-05T16:01:42;31.97;;;23.47;;
59273;SDS011;45044;41.572;24.730;2023-03-05T16:04:14;22.42;;;16.58;;
59273;SDS011;45044;41.572;24.730;2023-03-05T16:06:43;30.45;;;22.95;;
59273;SDS011;45044;41.572;24.730;2023-03-05T16:09:12;27.13;;;19.80;;
59273;SDS011;45044;41.572;24.730;2023-03-05T16:11:41;59.30;;;53.10;;
59273;SDS011;45044;41.572;24.730;2023-03-05T16:14:14;34.33;;;25.75;;
59273;SDS011;45044;41.572;24.730;2023-03-05T16:16:48;33.30;;;23.42;;
59273;SDS011;45044;41.572;24.730;2023-03-05T16:19:16;44.83;;;28.77;;
59273;SDS011;45044;41.572;24.730;2023-03-05T16:21:45;48.40;;;31.00;;